UNNT/OVB METAR and TAF weather

Enter ICAO airport designator
Station Type Date Time Source
UNNT METAR 2020/09/19 06:00 UTC NOAA

UNNT 190600Z 23006MPS 9999 BKN022CB 12/09 Q1019 R25/290160 R16/290160 NOSIG RMK QFE754/1006


Station Type Date Time Source
UNNT Decoded METAR 2020/09/19 06:00 UTC NOAA

Station name not available
Sep 19, 2020 - 02:00 AM EDT / 2020.09.19 0600 UTC
Wind: from the SW (230 degrees) at 13 MPH (12 KT):0
Visibility: greater than 7 mile(s):0
Sky conditions: mostly cloudy
Weather: Cumulonimbus clouds observed
Temperature: 53 F (12 C)
Dew Point: 48 F (9 C)
Relative Humidity: 81%
Pressure (altimeter): 30.09 in. Hg (1019 hPa)
ob: UNNT 190600Z 23006MPS 9999 BKN022CB 12/09 Q1019 R25/290160 R16/290160 NOSIG RMK QFE754/1006
cycle: 6

Station Type Date Time Source
UNNT TAF 2020/09/19 06:22 UTC NOAA

TAF UNNT 190500Z 1906/2006 22007G14MPS 9999 BKN040CB
TEMPO 1906/1912 -SHRA BKN011CB
BECMG 1912/1915 18003MPS

Example: see airport list